RYR34KC EPKK-LIEO
Flight info
| Callsign | RYR34KC |
|---|---|
| Flight time | 1h 51m |
| Altitude | 38000 |
| Route | BABKO DCT VADEX L856 KOPAT DCT MAREG DCT GIRDA DCT BAXON DCT GITRI |
| Aircraft | B738/M-SDE2E3FGHIRWXY/LB1 |
Departure
| Time | 2026-05-01 08:48 |
|---|---|
| Airport | Kraków John Paul II International Airport (EPKK) |
Arrival
| Time | 2026-05-01 10:40 |
|---|---|
| Airport | Olbia Costa Smeralda Airport (LIEO) |
| Time | Latitude | Longitude | Altitude | Speed | Heading |
|---|---|---|---|---|---|
| 2026-05-01 08:28 | 50.07308 | 19.80005 | 799 ft | 0 kts | 166° |
| 2026-05-01 08:38 | 50.07312 | 19.80004 | 799 ft | 2 kts | 166° |
| 2026-05-01 08:39 | 50.07327 | 19.79998 | 799 ft | 2 kts | 166° |
| 2026-05-01 08:39 | 50.07341 | 19.79992 | 799 ft | 2 kts | 166° |
| 2026-05-01 08:39 | 50.07351 | 19.79988 | 799 ft | 1 kts | 166° |
| 2026-05-01 08:39 | 50.07365 | 19.79980 | 799 ft | 2 kts | 143° |
| 2026-05-01 08:40 | 50.07382 | 19.79942 | 799 ft | 2 kts | 103° |
| 2026-05-01 08:40 | 50.07383 | 19.79919 | 799 ft | 2 kts | 82° |
| 2026-05-01 08:40 | 50.07382 | 19.79908 | 799 ft | 1 kts | 72° |
| 2026-05-01 08:41 | 50.07381 | 19.79903 | 799 ft | 0 kts | 74° |
| 2026-05-01 08:45 | 50.07387 | 19.79936 | 799 ft | 7 kts | 75° |
| 2026-05-01 08:45 | 50.07406 | 19.80068 | 799 ft | 16 kts | 77° |
| 2026-05-01 08:45 | 50.07432 | 19.80252 | 799 ft | 17 kts | 78° |
| 2026-05-01 08:46 | 50.07496 | 19.80390 | 799 ft | 16 kts | 18° |
| 2026-05-01 08:46 | 50.07612 | 19.80415 | 799 ft | 19 kts | 353° |
| 2026-05-01 08:46 | 50.07760 | 19.80364 | 799 ft | 22 kts | 348° |
| 2026-05-01 08:46 | 50.07914 | 19.80311 | 799 ft | 22 kts | 347° |
| 2026-05-01 08:47 | 50.08015 | 19.80219 | 799 ft | 14 kts | 263° |
| 2026-05-01 08:47 | 50.07973 | 19.79925 | 799 ft | 56 kts | 257° |
| 2026-05-01 08:47 | 50.07841 | 19.78987 | 799 ft | 117 kts | 258° |
| 2026-05-01 08:47 | 50.07634 | 19.77486 | 812 ft | 164 kts | 257° |
| 2026-05-01 08:48 | 50.07396 | 19.75735 | 1389 ft | 164 kts | 258° |
| 2026-05-01 08:48 | 50.07172 | 19.73992 | 1933 ft | 171 kts | 259° |
| 2026-05-01 08:48 | 50.06907 | 19.72069 | 2315 ft | 191 kts | 259° |
| 2026-05-01 08:48 | 50.06611 | 19.70019 | 2739 ft | 203 kts | 259° |
| 2026-05-01 08:49 | 50.06185 | 19.67792 | 3166 ft | 219 kts | 246° |
| 2026-05-01 08:49 | 50.05237 | 19.65880 | 3560 ft | 237 kts | 218° |
| 2026-05-01 08:49 | 50.03653 | 19.64841 | 3992 ft | 254 kts | 189° |
| 2026-05-01 08:49 | 50.01842 | 19.64914 | 4389 ft | 269 kts | 170° |
| 2026-05-01 08:50 | 49.99980 | 19.65540 | 4913 ft | 277 kts | 166° |
| 2026-05-01 08:50 | 49.98079 | 19.66265 | 5535 ft | 283 kts | 165° |
| 2026-05-01 08:50 | 49.96152 | 19.66974 | 6240 ft | 286 kts | 165° |
| 2026-05-01 08:50 | 49.94203 | 19.67656 | 6902 ft | 290 kts | 165° |
| 2026-05-01 08:51 | 49.92193 | 19.68339 | 7600 ft | 295 kts | 165° |
| 2026-05-01 08:51 | 49.90185 | 19.69008 | 8320 ft | 298 kts | 166° |
| 2026-05-01 08:51 | 49.88100 | 19.69357 | 8985 ft | 306 kts | 180° |
| 2026-05-01 08:51 | 49.85999 | 19.68587 | 9678 ft | 313 kts | 203° |
| 2026-05-01 08:52 | 49.84056 | 19.67010 | 10292 ft | 322 kts | 210° |
| 2026-05-01 08:52 | 49.82098 | 19.65187 | 10726 ft | 336 kts | 211° |
| 2026-05-01 08:52 | 49.80076 | 19.63301 | 11382 ft | 342 kts | 210° |
| 2026-05-01 08:52 | 49.78008 | 19.61430 | 12067 ft | 348 kts | 210° |
| 2026-05-01 08:53 | 49.75873 | 19.59548 | 12841 ft | 351 kts | 209° |
| 2026-05-01 08:53 | 49.73753 | 19.57713 | 13529 ft | 356 kts | 209° |
| 2026-05-01 08:53 | 49.71555 | 19.55827 | 14255 ft | 360 kts | 209° |
| 2026-05-01 08:53 | 49.69369 | 19.53959 | 14937 ft | 366 kts | 208° |
| 2026-05-01 08:54 | 49.67102 | 19.52015 | 15691 ft | 370 kts | 208° |
| 2026-05-01 08:54 | 49.64864 | 19.50086 | 16383 ft | 374 kts | 208° |
| 2026-05-01 08:54 | 49.62593 | 19.48005 | 17058 ft | 379 kts | 213° |
| 2026-05-01 08:54 | 49.60468 | 19.45536 | 17706 ft | 384 kts | 221° |
| 2026-05-01 08:55 | 49.58500 | 19.42740 | 18385 ft | 388 kts | 226° |
| 2026-05-01 08:55 | 49.56611 | 19.39749 | 19030 ft | 392 kts | 228° |
| 2026-05-01 08:55 | 49.54738 | 19.36643 | 19585 ft | 399 kts | 229° |
| 2026-05-01 08:55 | 49.52854 | 19.33498 | 20181 ft | 403 kts | 228° |
| 2026-05-01 08:56 | 49.50935 | 19.30308 | 20758 ft | 408 kts | 228° |
| 2026-05-01 08:56 | 49.48983 | 19.27087 | 21346 ft | 412 kts | 227° |
| 2026-05-01 08:56 | 49.46973 | 19.23798 | 21860 ft | 418 kts | 227° |
| 2026-05-01 08:56 | 49.44962 | 19.20523 | 22402 ft | 423 kts | 227° |
| 2026-05-01 08:57 | 49.42932 | 19.17235 | 23001 ft | 425 kts | 227° |
| 2026-05-01 08:57 | 49.40884 | 19.13926 | 23523 ft | 429 kts | 227° |
| 2026-05-01 08:57 | 49.38823 | 19.10598 | 24037 ft | 433 kts | 227° |
| 2026-05-01 08:57 | 49.36749 | 19.07253 | 24554 ft | 436 kts | 227° |
| 2026-05-01 08:58 | 49.34634 | 19.03847 | 25071 ft | 439 kts | 227° |
| 2026-05-01 08:58 | 49.32516 | 19.00441 | 25556 ft | 443 kts | 227° |
| 2026-05-01 08:58 | 49.30383 | 18.97011 | 26045 ft | 446 kts | 227° |
| 2026-05-01 08:58 | 49.28224 | 18.93547 | 26454 ft | 451 kts | 227° |
| 2026-05-01 08:59 | 49.26031 | 18.90032 | 26906 ft | 454 kts | 227° |
| 2026-05-01 08:59 | 49.23847 | 18.86535 | 27412 ft | 456 kts | 227° |
| 2026-05-01 08:59 | 49.21623 | 18.82976 | 27823 ft | 460 kts | 227° |
| 2026-05-01 08:59 | 49.19407 | 18.79439 | 28248 ft | 463 kts | 227° |
| 2026-05-01 09:00 | 49.17151 | 18.75840 | 28657 ft | 467 kts | 227° |
| 2026-05-01 09:00 | 49.14873 | 18.72212 | 29116 ft | 469 kts | 227° |
| 2026-05-01 09:00 | 49.12607 | 18.68606 | 29459 ft | 473 kts | 227° |
| 2026-05-01 09:00 | 49.10304 | 18.64920 | 29874 ft | 475 kts | 229° |
| 2026-05-01 09:01 | 49.08082 | 18.61091 | 30241 ft | 479 kts | 231° |
| 2026-05-01 09:01 | 49.05957 | 18.57167 | 30623 ft | 481 kts | 233° |
| 2026-05-01 09:01 | 49.03870 | 18.53172 | 30959 ft | 484 kts | 234° |
| 2026-05-01 09:01 | 49.01795 | 18.49149 | 31340 ft | 486 kts | 234° |
| 2026-05-01 09:02 | 48.99690 | 18.45069 | 31690 ft | 488 kts | 234° |
| 2026-05-01 09:02 | 48.97571 | 18.40982 | 31994 ft | 491 kts | 233° |
| 2026-05-01 09:02 | 48.95454 | 18.36928 | 32385 ft | 492 kts | 233° |
| 2026-05-01 09:02 | 48.93286 | 18.32796 | 32670 ft | 496 kts | 232° |
| 2026-05-01 09:03 | 48.91125 | 18.28703 | 32979 ft | 498 kts | 232° |
| 2026-05-01 09:03 | 48.88959 | 18.24627 | 33257 ft | 501 kts | 232° |
| 2026-05-01 09:03 | 48.86738 | 18.20463 | 33616 ft | 501 kts | 232° |
| 2026-05-01 09:03 | 48.84531 | 18.16337 | 33795 ft | 505 kts | 232° |
| 2026-05-01 09:04 | 48.82338 | 18.12248 | 34173 ft | 504 kts | 232° |
| 2026-05-01 09:04 | 48.80106 | 18.08095 | 34410 ft | 507 kts | 232° |
| 2026-05-01 09:04 | 48.77874 | 18.03949 | 34662 ft | 509 kts | 231° |
| 2026-05-01 09:04 | 48.75607 | 17.99746 | 35024 ft | 508 kts | 231° |
| 2026-05-01 09:05 | 48.73406 | 17.95674 | 35489 ft | 503 kts | 232° |
| 2026-05-01 09:05 | 48.71181 | 17.91565 | 35884 ft | 500 kts | 232° |
| 2026-05-01 09:05 | 48.68978 | 17.87501 | 36242 ft | 497 kts | 232° |
| 2026-05-01 09:05 | 48.66783 | 17.83455 | 36573 ft | 496 kts | 232° |
| 2026-05-01 09:06 | 48.64567 | 17.79377 | 36965 ft | 494 kts | 232° |
| 2026-05-01 09:06 | 48.62401 | 17.75396 | 37360 ft | 493 kts | 232° |
| 2026-05-01 09:06 | 48.60215 | 17.71383 | 37733 ft | 491 kts | 232° |
| 2026-05-01 09:06 | 48.58071 | 17.67456 | 37990 ft | 490 kts | 232° |
| 2026-05-01 09:07 | 48.53685 | 17.59438 | 37987 ft | 492 kts | 232° |
| 2026-05-01 09:07 | 48.49332 | 17.51506 | 37982 ft | 491 kts | 233° |
| 2026-05-01 09:08 | 48.44958 | 17.43557 | 37991 ft | 490 kts | 232° |
| 2026-05-01 09:08 | 48.40595 | 17.35646 | 37984 ft | 489 kts | 233° |
| 2026-05-01 09:09 | 48.36242 | 17.27780 | 37992 ft | 492 kts | 232° |
| 2026-05-01 09:09 | 48.31844 | 17.19860 | 37983 ft | 490 kts | 232° |
| 2026-05-01 09:10 | 48.27459 | 17.11987 | 37985 ft | 490 kts | 231° |
| 2026-05-01 09:10 | 48.23044 | 17.04083 | 37997 ft | 491 kts | 231° |
| 2026-05-01 09:11 | 48.18470 | 16.96492 | 37994 ft | 490 kts | 224° |
| 2026-05-01 09:11 | 48.13251 | 16.89982 | 37999 ft | 490 kts | 217° |
| 2026-05-01 09:12 | 48.07686 | 16.83947 | 38014 ft | 492 kts | 215° |
| 2026-05-01 09:12 | 48.02096 | 16.77973 | 38022 ft | 492 kts | 216° |
| 2026-05-01 09:13 | 47.96532 | 16.71954 | 38006 ft | 491 kts | 216° |
| 2026-05-01 09:13 | 47.90994 | 16.65910 | 38010 ft | 490 kts | 216° |
| 2026-05-01 09:14 | 47.85492 | 16.59889 | 38001 ft | 493 kts | 217° |
| 2026-05-01 09:14 | 47.79938 | 16.53814 | 37994 ft | 491 kts | 216° |
| 2026-05-01 09:15 | 47.74412 | 16.47783 | 37998 ft | 493 kts | 216° |
| 2026-05-01 09:15 | 47.68876 | 16.41757 | 37974 ft | 491 kts | 216° |
| 2026-05-01 09:16 | 47.63346 | 16.35757 | 37979 ft | 492 kts | 216° |
| 2026-05-01 09:17 | 47.55022 | 16.26756 | 37955 ft | 492 kts | 215° |
| 2026-05-01 09:17 | 47.46720 | 16.17815 | 37940 ft | 491 kts | 216° |
| 2026-05-01 09:18 | 47.38403 | 16.08894 | 37973 ft | 491 kts | 216° |
| 2026-05-01 09:19 | 47.30087 | 16.00006 | 37960 ft | 492 kts | 216° |
| 2026-05-01 09:20 | 47.21743 | 15.91128 | 37977 ft | 491 kts | 216° |
| 2026-05-01 09:21 | 47.10627 | 15.79352 | 37961 ft | 493 kts | 216° |
| 2026-05-01 09:21 | 47.02282 | 15.70554 | 37978 ft | 492 kts | 216° |
| 2026-05-01 09:22 | 46.91142 | 15.58868 | 37982 ft | 490 kts | 216° |
| 2026-05-01 09:23 | 46.82802 | 15.50154 | 38040 ft | 489 kts | 216° |
| 2026-05-01 09:24 | 46.77244 | 15.44366 | 38326 ft | 489 kts | 216° |
| 2026-05-01 09:24 | 46.74451 | 15.41464 | 38344 ft | 490 kts | 216° |
| 2026-05-01 09:25 | 46.63416 | 15.30032 | 38321 ft | 487 kts | 215° |
| 2026-05-01 09:26 | 46.55113 | 15.21469 | 38301 ft | 487 kts | 215° |
| 2026-05-01 09:26 | 46.46828 | 15.12959 | 38316 ft | 486 kts | 215° |
| 2026-05-01 09:27 | 46.38525 | 15.04462 | 38319 ft | 483 kts | 215° |
| 2026-05-01 09:28 | 46.33012 | 14.98838 | 38331 ft | 485 kts | 215° |
| 2026-05-01 09:28 | 46.27496 | 14.93225 | 38354 ft | 483 kts | 215° |
| 2026-05-01 09:29 | 46.19206 | 14.84814 | 38295 ft | 481 kts | 216° |
| 2026-05-01 09:30 | 46.10959 | 14.76480 | 38317 ft | 483 kts | 215° |
| 2026-05-01 09:30 | 46.02646 | 14.68112 | 38345 ft | 481 kts | 215° |
| 2026-05-01 09:31 | 45.97161 | 14.62604 | 38364 ft | 481 kts | 215° |
| 2026-05-01 09:32 | 45.88870 | 14.54309 | 38340 ft | 480 kts | 216° |
| 2026-05-01 09:32 | 45.80602 | 14.46067 | 38306 ft | 481 kts | 216° |
| 2026-05-01 09:33 | 45.75059 | 14.40559 | 38336 ft | 483 kts | 215° |
| 2026-05-01 09:34 | 45.66752 | 14.32328 | 38318 ft | 484 kts | 215° |
| 2026-05-01 09:34 | 45.58461 | 14.24147 | 38347 ft | 482 kts | 215° |
| 2026-05-01 09:35 | 45.50164 | 14.16004 | 38331 ft | 481 kts | 214° |
| 2026-05-01 09:36 | 45.44336 | 14.11137 | 38340 ft | 482 kts | 206° |
| 2026-05-01 09:36 | 45.38231 | 14.07083 | 38328 ft | 483 kts | 203° |
| 2026-05-01 09:37 | 45.32087 | 14.03256 | 38336 ft | 483 kts | 204° |
| 2026-05-01 09:37 | 45.22866 | 13.97488 | 38342 ft | 481 kts | 204° |
| 2026-05-01 09:38 | 45.13662 | 13.91648 | 38341 ft | 482 kts | 205° |
| 2026-05-01 09:39 | 45.04432 | 13.85773 | 38353 ft | 482 kts | 204° |
| 2026-05-01 09:39 | 44.98307 | 13.81884 | 38361 ft | 481 kts | 205° |
| 2026-05-01 09:40 | 44.89095 | 13.76054 | 38352 ft | 479 kts | 205° |
| 2026-05-01 09:41 | 44.82988 | 13.72200 | 38349 ft | 478 kts | 205° |
| 2026-05-01 09:41 | 44.73806 | 13.66418 | 38345 ft | 482 kts | 205° |
| 2026-05-01 09:42 | 44.67698 | 13.62584 | 38327 ft | 478 kts | 205° |
| 2026-05-01 09:43 | 44.55428 | 13.54912 | 38328 ft | 480 kts | 206° |
| 2026-05-01 09:43 | 44.49334 | 13.51115 | 38323 ft | 478 kts | 205° |
| 2026-05-01 09:44 | 44.40383 | 13.45004 | 38327 ft | 477 kts | 214° |
| 2026-05-01 09:45 | 44.34875 | 13.39849 | 38326 ft | 475 kts | 219° |
| 2026-05-01 09:45 | 44.26879 | 13.31602 | 38327 ft | 475 kts | 219° |
| 2026-05-01 09:46 | 44.21553 | 13.26110 | 38330 ft | 474 kts | 219° |
| 2026-05-01 09:46 | 44.16206 | 13.20662 | 38330 ft | 473 kts | 219° |
| 2026-05-01 09:47 | 44.10891 | 13.15296 | 38343 ft | 473 kts | 219° |
| 2026-05-01 09:47 | 44.05548 | 13.09929 | 38340 ft | 472 kts | 219° |
| 2026-05-01 09:48 | 44.00193 | 13.04569 | 38334 ft | 471 kts | 219° |
| 2026-05-01 09:48 | 43.94875 | 12.99262 | 38334 ft | 472 kts | 219° |
| 2026-05-01 09:49 | 43.89507 | 12.93916 | 38323 ft | 471 kts | 219° |
| 2026-05-01 09:49 | 43.84158 | 12.88604 | 38349 ft | 472 kts | 219° |
| 2026-05-01 09:50 | 43.78787 | 12.83282 | 38331 ft | 474 kts | 219° |
| 2026-05-01 09:50 | 43.73445 | 12.78001 | 38321 ft | 471 kts | 219° |
| 2026-05-01 09:51 | 43.68079 | 12.72702 | 38309 ft | 472 kts | 219° |
| 2026-05-01 09:51 | 43.62703 | 12.67404 | 38311 ft | 473 kts | 219° |
| 2026-05-01 09:52 | 43.57366 | 12.62163 | 38301 ft | 472 kts | 219° |
| 2026-05-01 09:52 | 43.51988 | 12.56894 | 38284 ft | 472 kts | 219° |
| 2026-05-01 09:53 | 43.46634 | 12.51660 | 38270 ft | 473 kts | 219° |
| 2026-05-01 09:53 | 43.41271 | 12.46427 | 38276 ft | 473 kts | 219° |
| 2026-05-01 09:54 | 43.35901 | 12.41197 | 38273 ft | 474 kts | 220° |
| 2026-05-01 09:54 | 43.30499 | 12.35949 | 38275 ft | 473 kts | 220° |
| 2026-05-01 09:55 | 43.25126 | 12.30743 | 38275 ft | 474 kts | 219° |
| 2026-05-01 09:55 | 43.19735 | 12.25529 | 38276 ft | 474 kts | 219° |
| 2026-05-01 09:56 | 43.14331 | 12.20315 | 38267 ft | 473 kts | 219° |
| 2026-05-01 09:56 | 43.08925 | 12.15109 | 38272 ft | 473 kts | 219° |
| 2026-05-01 09:57 | 43.03522 | 12.09917 | 38246 ft | 476 kts | 219° |
| 2026-05-01 09:57 | 42.98102 | 12.04721 | 38258 ft | 474 kts | 219° |
| 2026-05-01 09:58 | 42.92734 | 11.99587 | 38261 ft | 472 kts | 219° |
| 2026-05-01 09:58 | 42.87335 | 11.94432 | 38252 ft | 472 kts | 219° |
| 2026-05-01 09:59 | 42.81913 | 11.89269 | 38242 ft | 472 kts | 219° |
| 2026-05-01 09:59 | 42.76518 | 11.84146 | 38234 ft | 471 kts | 219° |
| 2026-05-01 10:00 | 42.71129 | 11.79037 | 38248 ft | 472 kts | 219° |
| 2026-05-01 10:00 | 42.65720 | 11.73918 | 38237 ft | 469 kts | 220° |
| 2026-05-01 10:01 | 42.60352 | 11.68850 | 38235 ft | 469 kts | 220° |
| 2026-05-01 10:01 | 42.54991 | 11.63799 | 38241 ft | 469 kts | 220° |
| 2026-05-01 10:02 | 42.49640 | 11.58769 | 38236 ft | 466 kts | 220° |
| 2026-05-01 10:02 | 42.44244 | 11.53707 | 38235 ft | 468 kts | 220° |
| 2026-05-01 10:03 | 42.38897 | 11.48701 | 38240 ft | 467 kts | 220° |
| 2026-05-01 10:03 | 42.33510 | 11.43670 | 38233 ft | 465 kts | 220° |
| 2026-05-01 10:04 | 42.28214 | 11.38735 | 38224 ft | 463 kts | 220° |
| 2026-05-01 10:04 | 42.22886 | 11.33778 | 38235 ft | 463 kts | 219° |
| 2026-05-01 10:05 | 42.17580 | 11.28852 | 38233 ft | 461 kts | 219° |
| 2026-05-01 10:05 | 42.12291 | 11.23953 | 38231 ft | 463 kts | 219° |
| 2026-05-01 10:06 | 42.07018 | 11.19079 | 38228 ft | 459 kts | 219° |
| 2026-05-01 10:06 | 42.01723 | 11.14193 | 38233 ft | 460 kts | 219° |
| 2026-05-01 10:07 | 41.96444 | 11.09332 | 38241 ft | 459 kts | 220° |
| 2026-05-01 10:07 | 41.91173 | 11.04492 | 38226 ft | 457 kts | 220° |
| 2026-05-01 10:08 | 41.85992 | 10.99749 | 37574 ft | 449 kts | 220° |
| 2026-05-01 10:08 | 41.83403 | 10.97383 | 37043 ft | 448 kts | 221° |
| 2026-05-01 10:08 | 41.80828 | 10.95029 | 36455 ft | 448 kts | 221° |
| 2026-05-01 10:09 | 41.78243 | 10.92668 | 35974 ft | 445 kts | 221° |
| 2026-05-01 10:09 | 41.75731 | 10.90375 | 35559 ft | 441 kts | 221° |
| 2026-05-01 10:09 | 41.73195 | 10.88063 | 35093 ft | 439 kts | 222° |
| 2026-05-01 10:09 | 41.70643 | 10.85739 | 34622 ft | 437 kts | 222° |
| 2026-05-01 10:10 | 41.68136 | 10.83459 | 34155 ft | 435 kts | 222° |
| 2026-05-01 10:10 | 41.65633 | 10.81183 | 33656 ft | 432 kts | 222° |
| 2026-05-01 10:10 | 41.60696 | 10.76701 | 32731 ft | 425 kts | 221° |
| 2026-05-01 10:11 | 41.58262 | 10.74496 | 32272 ft | 421 kts | 222° |
| 2026-05-01 10:11 | 41.55853 | 10.72315 | 31821 ft | 417 kts | 222° |
| 2026-05-01 10:11 | 41.53442 | 10.70134 | 31367 ft | 414 kts | 222° |
| 2026-05-01 10:11 | 41.51078 | 10.67998 | 30915 ft | 410 kts | 222° |
| 2026-05-01 10:12 | 41.48744 | 10.65889 | 30470 ft | 407 kts | 222° |
| 2026-05-01 10:12 | 41.47157 | 10.64457 | 30166 ft | 404 kts | 222° |
| 2026-05-01 10:12 | 41.41774 | 10.59599 | 29136 ft | 396 kts | 221° |
| 2026-05-01 10:13 | 41.39473 | 10.57525 | 28685 ft | 393 kts | 221° |
| 2026-05-01 10:13 | 41.37222 | 10.55500 | 28244 ft | 390 kts | 222° |
| 2026-05-01 10:13 | 41.34979 | 10.53484 | 27802 ft | 387 kts | 221° |
| 2026-05-01 10:14 | 41.30558 | 10.49514 | 26936 ft | 380 kts | 221° |
| 2026-05-01 10:14 | 41.28362 | 10.47544 | 26504 ft | 378 kts | 221° |
| 2026-05-01 10:14 | 41.26165 | 10.45574 | 26061 ft | 375 kts | 221° |
| 2026-05-01 10:14 | 41.24010 | 10.43644 | 25621 ft | 372 kts | 221° |
| 2026-05-01 10:15 | 41.21868 | 10.41728 | 25192 ft | 369 kts | 222° |
| 2026-05-01 10:15 | 41.19746 | 10.39831 | 24763 ft | 367 kts | 221° |
| 2026-05-01 10:15 | 41.17616 | 10.37928 | 24328 ft | 364 kts | 221° |
| 2026-05-01 10:15 | 41.15520 | 10.36058 | 23907 ft | 362 kts | 221° |
| 2026-05-01 10:16 | 41.13445 | 10.34209 | 23482 ft | 359 kts | 221° |
| 2026-05-01 10:16 | 41.11351 | 10.32343 | 23064 ft | 358 kts | 221° |
| 2026-05-01 10:16 | 41.07220 | 10.28664 | 22217 ft | 355 kts | 220° |
| 2026-05-01 10:17 | 41.05195 | 10.26863 | 21804 ft | 353 kts | 220° |
| 2026-05-01 10:17 | 41.01102 | 10.23226 | 20961 ft | 351 kts | 220° |
| 2026-05-01 10:17 | 40.99087 | 10.21435 | 20535 ft | 349 kts | 220° |
| 2026-05-01 10:18 | 40.95670 | 10.17154 | 19709 ft | 331 kts | 244° |
| 2026-05-01 10:18 | 40.94617 | 10.14484 | 19315 ft | 320 kts | 256° |
| 2026-05-01 10:18 | 40.93930 | 10.11707 | 18911 ft | 313 kts | 263° |
| 2026-05-01 10:19 | 40.93576 | 10.08919 | 18520 ft | 303 kts | 275° |
| 2026-05-01 10:19 | 40.93635 | 10.06178 | 18150 ft | 295 kts | 283° |
| 2026-05-01 10:19 | 40.93884 | 10.03518 | 17772 ft | 291 kts | 285° |
| 2026-05-01 10:20 | 40.94487 | 9.98248 | 17035 ft | 288 kts | 285° |
| 2026-05-01 10:20 | 40.94785 | 9.95528 | 16673 ft | 305 kts | 284° |
| 2026-05-01 10:20 | 40.95052 | 9.92745 | 16280 ft | 307 kts | 280° |
| 2026-05-01 10:20 | 40.94952 | 9.89897 | 15872 ft | 314 kts | 263° |
| 2026-05-01 10:21 | 40.94107 | 9.87174 | 15474 ft | 322 kts | 243° |
| 2026-05-01 10:21 | 40.91547 | 9.82309 | 14673 ft | 320 kts | 239° |
| 2026-05-01 10:21 | 40.90260 | 9.79897 | 14274 ft | 319 kts | 240° |
| 2026-05-01 10:22 | 40.87743 | 9.75102 | 13479 ft | 314 kts | 240° |
| 2026-05-01 10:22 | 40.85328 | 9.70474 | 13133 ft | 296 kts | 240° |
| 2026-05-01 10:23 | 40.84155 | 9.68224 | 12888 ft | 296 kts | 240° |
| 2026-05-01 10:23 | 40.81836 | 9.63774 | 12385 ft | 292 kts | 240° |
| 2026-05-01 10:23 | 40.80671 | 9.61546 | 12135 ft | 291 kts | 240° |
| 2026-05-01 10:24 | 40.78377 | 9.57160 | 11634 ft | 290 kts | 239° |
| 2026-05-01 10:24 | 40.76089 | 9.52787 | 11143 ft | 289 kts | 239° |
| 2026-05-01 10:25 | 40.73803 | 9.48424 | 10643 ft | 286 kts | 239° |
| 2026-05-01 10:25 | 40.71552 | 9.44142 | 10148 ft | 284 kts | 239° |
| 2026-05-01 10:26 | 40.70418 | 9.41988 | 9899 ft | 283 kts | 239° |
| 2026-05-01 10:26 | 40.69293 | 9.39852 | 9669 ft | 283 kts | 239° |
| 2026-05-01 10:26 | 40.67053 | 9.35604 | 9160 ft | 281 kts | 239° |
| 2026-05-01 10:27 | 40.64829 | 9.31396 | 8676 ft | 277 kts | 238° |
| 2026-05-01 10:27 | 40.62649 | 9.27268 | 8201 ft | 269 kts | 238° |
| 2026-05-01 10:28 | 40.61593 | 9.25264 | 7958 ft | 268 kts | 238° |
| 2026-05-01 10:28 | 40.59457 | 9.21222 | 7450 ft | 268 kts | 237° |
| 2026-05-01 10:28 | 40.58386 | 9.19210 | 7182 ft | 266 kts | 236° |
| 2026-05-01 10:29 | 40.56910 | 9.14852 | 6695 ft | 260 kts | 276° |
| 2026-05-01 10:29 | 40.57388 | 9.12630 | 6435 ft | 247 kts | 309° |
| 2026-05-01 10:30 | 40.59938 | 9.09863 | 5946 ft | 235 kts | 330° |
| 2026-05-01 10:30 | 40.62645 | 9.07381 | 5630 ft | 236 kts | 333° |
| 2026-05-01 10:31 | 40.65595 | 9.06925 | 5134 ft | 211 kts | 30° |
| 2026-05-01 10:31 | 40.67618 | 9.09553 | 4820 ft | 199 kts | 55° |
| 2026-05-01 10:32 | 40.69180 | 9.12663 | 4396 ft | 204 kts | 56° |
| 2026-05-01 10:32 | 40.69972 | 9.14211 | 4153 ft | 202 kts | 55° |
| 2026-05-01 10:32 | 40.71534 | 9.17237 | 3934 ft | 198 kts | 55° |
| 2026-05-01 10:33 | 40.73112 | 9.20298 | 3938 ft | 199 kts | 55° |
| 2026-05-01 10:33 | 40.74691 | 9.23231 | 3939 ft | 193 kts | 51° |
| 2026-05-01 10:34 | 40.75521 | 9.24639 | 3938 ft | 195 kts | 52° |
| 2026-05-01 10:34 | 40.76319 | 9.26100 | 3931 ft | 195 kts | 54° |
| 2026-05-01 10:34 | 40.77100 | 9.27576 | 3937 ft | 194 kts | 54° |
| 2026-05-01 10:35 | 40.78631 | 9.30470 | 3941 ft | 180 kts | 54° |
| 2026-05-01 10:35 | 40.79328 | 9.31785 | 3937 ft | 172 kts | 54° |
| 2026-05-01 10:35 | 40.80000 | 9.33058 | 3840 ft | 165 kts | 54° |
| 2026-05-01 10:35 | 40.80661 | 9.34308 | 3534 ft | 167 kts | 54° |
| 2026-05-01 10:36 | 40.81981 | 9.36804 | 3008 ft | 164 kts | 54° |
| 2026-05-01 10:36 | 40.82629 | 9.38029 | 2745 ft | 163 kts | 54° |
| 2026-05-01 10:36 | 40.83277 | 9.39259 | 2486 ft | 162 kts | 54° |
| 2026-05-01 10:37 | 40.83918 | 9.40474 | 2242 ft | 153 kts | 54° |
| 2026-05-01 10:37 | 40.85032 | 9.42583 | 1768 ft | 130 kts | 53° |
| 2026-05-01 10:37 | 40.85535 | 9.43542 | 1581 ft | 124 kts | 53° |
| 2026-05-01 10:38 | 40.86045 | 9.44507 | 1388 ft | 128 kts | 53° |
| 2026-05-01 10:38 | 40.86555 | 9.45465 | 1186 ft | 128 kts | 52° |
| 2026-05-01 10:38 | 40.87064 | 9.46447 | 981 ft | 129 kts | 52° |
| 2026-05-01 10:38 | 40.87569 | 9.47435 | 801 ft | 130 kts | 54° |
| 2026-05-01 10:39 | 40.88109 | 9.48414 | 587 ft | 131 kts | 54° |
| 2026-05-01 10:39 | 40.88636 | 9.49419 | 364 ft | 131 kts | 55° |
| 2026-05-01 10:39 | 40.89157 | 9.50418 | 146 ft | 133 kts | 51° |
| 2026-05-01 10:39 | 40.89685 | 9.51415 | 48 ft | 120 kts | 54° |
| 2026-05-01 10:40 | 40.90006 | 9.52023 | 48 ft | 48 kts | 54° |
| 2026-05-01 10:40 | 40.90184 | 9.52366 | 47 ft | 43 kts | 54° |
| 2026-05-01 10:40 | 40.90331 | 9.52644 | 47 ft | 26 kts | 52° |
| 2026-05-01 10:40 | 40.90445 | 9.52650 | 47 ft | 18 kts | 294° |
| 2026-05-01 10:41 | 40.90448 | 9.52488 | 47 ft | 17 kts | 246° |
| 2026-05-01 10:41 | 40.90380 | 9.52351 | 47 ft | 17 kts | 235° |
| 2026-05-01 10:41 | 40.90224 | 9.52054 | 48 ft | 21 kts | 234° |
| 2026-05-01 10:42 | 40.90177 | 9.51886 | 48 ft | 14 kts | 281° |
| 2026-05-01 10:42 | 40.90227 | 9.51804 | 48 ft | 8 kts | 343° |
| 2026-05-01 10:42 | 40.90279 | 9.51778 | 48 ft | 4 kts | 326° |
| 2026-05-01 10:42 | 40.90302 | 9.51773 | 48 ft | 3 kts | 13° |
| 2026-05-01 10:43 | 40.90314 | 9.51778 | 48 ft | 0 kts | 20° |